Time;durP1;ratioP1;P1;durP2;ratioP2;P2;SDS_P1;SDS_P2;PMS_P1;PMS_P2;Temp;Humidity;BMP_temperature;BMP_pressure;BME280_temperature;BME280_humidity;BME280_pressure;Samples;Min_cycle;Max_cycle;Signal;HPM_P1;HPM_P2
2021/12/26 00:01:22;;;;;;;5.15;2.15;;;;;;;3.50;51.59;100753.69;5075685;28;20385;-48
2021/12/26 00:03:48;;;;;;;7.37;2.67;;;;;;;3.36;52.73;100741.00;5075114;28;20099;-51
2021/12/26 00:06:16;;;;;;;;;;;;;;;3.20;53.38;100742.47;5076302;28;20311;-51
2021/12/26 00:08:44;;;;;;;9.45;3.33;;;;;;;3.27;54.41;100748.00;5076686;28;19909;-49
2021/12/26 00:11:11;;;;;;;7.43;3.25;;;;;;;3.21;53.25;100733.56;5076483;28;20043;-56
2021/12/26 00:13:38;;;;;;;8.38;2.85;;;;;;;3.22;52.29;100731.78;5077016;28;20447;-53
2021/12/26 00:16:04;;;;;;;5.43;2.83;;;;;;;3.22;53.31;100735.22;5076292;28;20042;-53
2021/12/26 00:18:30;;;;;;;6.25;3.13;;;;;;;3.17;53.77;100729.56;5076942;28;20054;-53
2021/12/26 00:20:56;;;;;;;8.43;2.63;;;;;;;2.96;57.95;100730.66;5075314;28;20127;-52
2021/12/26 00:23:22;;;;;;;4.63;2.20;;;;;;;3.12;53.75;100726.56;5076467;28;20115;-51
2021/12/26 00:25:48;;;;;;;5.00;2.90;;;;;;;3.18;53.64;100720.66;5076427;28;20470;-52
2021/12/26 00:28:15;;;;;;;7.40;3.00;;;;;;;3.39;52.67;100724.81;5076685;28;20064;-52
2021/12/26 00:30:42;;;;;;;4.78;2.20;;;;;;;3.42;54.53;100716.59;5058773;28;20340;-50
2021/12/26 00:33:08;;;;;;;6.22;2.30;;;;;;;3.39;53.41;100716.91;5075761;28;20058;-48
2021/12/26 00:35:34;;;;;;;6.65;2.53;;;;;;;3.62;53.36;100727.00;5076484;28;20347;-56
2021/12/26 00:38:00;;;;;;;4.67;1.87;;;;;;;3.65;52.47;100716.97;5075331;28;20048;-51
2021/12/26 00:40:29;;;;;;;4.30;2.38;;;;;;;3.59;52.99;100726.34;5074990;28;20264;-52
2021/12/26 00:42:55;;;;;;;4.45;2.28;;;;;;;3.69;52.23;100725.41;5076204;28;20377;-49
2021/12/26 00:45:21;;;;;;;5.25;2.38;;;;;;;3.65;52.42;100718.75;5074103;28;20032;-52
2021/12/26 00:47:48;;;;;;;4.95;2.33;;;;;;;3.70;51.62;100711.22;5076291;28;20029;-50
2021/12/26 00:50:18;;;;;;;5.70;2.08;;;;;;;3.75;51.39;100713.41;5075952;28;20036;-51
2021/12/26 00:52:43;;;;;;;3.95;2.30;;;;;;;3.80;50.36;100711.09;5075656;28;20043;-47
2021/12/26 00:55:11;;;;;;;4.87;2.50;;;;;;;3.61;50.51;100717.41;5075181;28;20052;-49
2021/12/26 00:57:37;;;;;;;9.77;2.47;;;;;;;3.47;51.75;100717.00;5075754;28;20032;-47
2021/12/26 01:00:14;;;;;;;5.05;2.13;;;;;;;3.37;51.48;100721.50;5073850;28;20478;-50
2021/12/26 01:02:41;;;;;;;3.70;2.10;;;;;;;3.62;52.74;100713.78;5073906;28;20037;-49
2021/12/26 01:05:08;;;;;;;3.83;1.92;;;;;;;3.45;54.16;100711.00;5056674;28;20036;-48
2021/12/26 01:10:20;;;;;;;7.88;2.03;;;;;;;3.68;50.14;100723.75;5073770;28;20127;-49
2021/12/26 01:12:48;;;;;;;4.07;2.10;;;;;;;3.50;52.58;100719.31;5057021;28;20044;-45
2021/12/26 01:15:14;;;;;;;3.40;1.92;;;;;;;3.35;52.12;100712.91;5073076;28;20052;-47
2021/12/26 01:17:46;;;;;;;6.40;2.50;;;;;;;3.59;50.77;100713.13;5073225;28;20362;-50
2021/12/26 01:20:29;;;;;;;4.68;2.08;;;;;;;3.41;53.45;100712.28;5073918;28;20055;-50
2021/12/26 01:22:56;;;;;;;4.05;2.20;;;;;;;3.54;51.80;100707.47;5072993;28;20036;-50
2021/12/26 01:25:21;;;;;;;4.72;2.38;;;;;;;3.59;52.50;100713.13;5073387;28;20028;-48
2021/12/26 01:27:47;;;;;;;4.63;2.28;;;;;;;3.51;50.65;100721.00;5056447;28;20041;-46
2021/12/26 01:30:13;;;;;;;3.33;2.00;;;;;;;3.51;49.88;100713.06;5073197;28;20473;-52
2021/12/26 01:32:44;;;;;;;5.95;2.30;;;;;;;3.52;50.87;100709.44;5057611;28;20048;-50
2021/12/26 01:35:28;;;;;;;6.40;2.65;;;;;;;3.53;50.93;100711.09;5074119;28;20044;-47
2021/12/26 01:38:06;;;;;;;5.45;2.83;;;;;;;3.52;49.91;100709.44;5073128;28;20037;-48
2021/12/26 01:40:52;;;;;;;8.27;2.97;;;;;;;3.54;50.09;100712.75;5072464;28;20045;-48
2021/12/26 01:43:48;;;;;;;5.63;2.30;;;;;;;3.67;51.94;100717.66;5036702;28;20041;-51
2021/12/26 01:46:28;;;;;;;5.38;2.42;;;;;;;3.76;50.12;100721.19;5057688;28;20067;-48
2021/12/26 01:49:06;;;;;;;5.43;2.13;;;;;;;3.64;50.22;100717.09;5072626;28;20036;-59
2021/12/26 01:51:32;;;;;;;3.85;1.98;;;;;;;3.39;51.16;100708.97;5072990;28;20487;-60
2021/12/26 01:54:04;;;;;;;4.32;1.85;;;;;;;3.33;52.36;100704.28;5056097;28;20024;-60
2021/12/26 01:56:29;;;;;;;4.40;2.05;;;;;;;3.44;51.36;100709.34;5072382;28;20355;-60
2021/12/26 01:58:56;;;;;;;3.92;1.98;;;;;;;3.46;52.20;100703.91;5072662;28;20127;-58
2021/12/26 02:01:55;;;;;;;4.97;1.80;;;;;;;3.34;54.19;100706.75;5100017;27;1265926;-60
2021/12/26 02:04:23;;;;;;;4.93;2.05;;;;;;;3.41;52.40;100713.13;5087191;28;20067;-59
2021/12/26 02:06:49;;;;;;;4.28;2.00;;;;;;;3.05;53.41;100710.44;5071568;28;20032;-60
2021/12/26 02:09:16;;;;;;;6.05;2.17;;;;;;;2.76;53.91;100698.25;5090407;28;20376;-59
2021/12/26 02:11:41;;;;;;;5.70;2.72;;;;;;;3.12;53.78;100690.41;5080942;28;20048;-65
2021/12/26 02:14:08;;;;;;;;;;;;;;;2.94;54.49;100689.53;5106307;28;20042;-60
2021/12/26 02:16:54;;;;;;;4.90;2.00;;;;;;;2.96;53.98;100687.59;5110321;28;19912;-60
2021/12/26 02:19:20;;;;;;;7.43;3.10;;;;;;;2.97;55.19;100684.78;5092382;28;20429;-59
2021/12/26 02:24:23;;;;;;;5.65;2.88;;;;;;;3.09;54.59;100684.56;5092933;28;20028;-60
2021/12/26 02:29:34;;;;;;;6.85;2.67;;;;;;;2.83;55.62;100687.94;5092751;28;20032;-59
2021/12/26 02:31:59;;;;;;;6.93;2.30;;;;;;;2.68;57.60;100684.97;5093337;28;20042;-62
2021/12/26 02:34:25;;;;;;;7.38;2.70;;;;;;;2.57;59.21;100683.34;5092276;28;20130;-60
2021/12/26 02:36:51;;;;;;;4.78;2.72;;;;;;;2.80;56.31;100682.97;5096789;28;20053;-60
2021/12/26 02:39:17;;;;;;;4.50;2.17;;;;;;;2.70;54.45;100677.72;5077323;28;20077;-59
2021/12/26 02:41:43;;;;;;;4.80;2.28;;;;;;;2.82;54.65;100675.72;5091513;28;20040;-61
2021/12/26 02:44:10;;;;;;;4.72;2.20;;;;;;;2.72;55.16;100684.50;5110049;28;20067;-59
2021/12/26 02:46:40;;;;;;;5.38;2.00;;;;;;;2.65;53.57;100683.44;5091859;28;20039;-59
2021/12/26 02:49:05;;;;;;;3.95;1.98;;;;;;;2.69;53.24;100684.00;5091874;28;20135;-60
2021/12/26 02:51:31;;;;;;;4.68;2.08;;;;;;;2.79;54.66;100689.22;5074225;28;20123;-59
2021/12/26 02:53:57;;;;;;;5.93;2.38;;;;;;;2.93;52.41;100687.88;5091087;28;20075;-59
2021/12/26 02:56:22;;;;;;;4.80;2.25;;;;;;;2.91;52.96;100685.38;5091624;28;20485;-59
2021/12/26 02:58:48;;;;;;;5.53;2.60;;;;;;;2.79;52.76;100686.56;5091149;28;20514;-59
2021/12/26 03:01:18;;;;;;;3.90;2.55;;;;;;;2.93;52.72;100683.41;5091474;28;20036;-60
2021/12/26 03:03:44;;;;;;;5.70;2.05;;;;;;;3.08;52.06;100674.97;5091431;28;20086;-60
2021/12/26 03:06:19;;;;;;;5.13;2.33;;;;;;;2.98;53.92;100667.94;5110182;28;20036;-60
2021/12/26 03:08:47;;;;;;;5.00;2.30;;;;;;;2.69;53.51;100687.44;5091729;28;20046;-61
2021/12/26 03:11:12;;;;;;;8.50;2.70;;;;;;;2.86;54.59;100677.88;5107719;28;20425;-59
2021/12/26 03:13:39;;;;;;;5.63;2.30;;;;;;;2.99;53.21;100672.25;5077469;28;20142;-60
2021/12/26 03:16:05;;;;;;;5.63;2.20;;;;;;;2.87;53.50;100668.16;5095575;28;20479;-60
2021/12/26 03:18:30;;;;;;;7.68;2.47;;;;;;;2.91;56.16;100674.81;5078028;28;20036;-59
2021/12/26 03:20:56;;;;;;;5.20;2.33;;;;;;;2.87;53.69;100662.88;5077546;28;20372;-59
2021/12/26 03:23:25;;;;;;;5.43;2.53;;;;;;;2.70;54.64;100678.53;5095880;28;20119;-59
2021/12/26 03:25:54;;;;;;;2.90;1.88;;;;;;;2.60;55.49;100667.22;5077516;28;20047;-61
2021/12/26 03:28:21;;;;;;;4.07;2.20;;;;;;;2.71;54.94;100661.72;5095976;28;20028;-59
2021/12/26 03:30:46;;;;;;;6.07;1.83;;;;;;;2.86;54.83;100661.22;5077950;28;20055;-59
2021/12/26 03:33:13;;;;;;;5.38;2.25;;;;;;;2.73;54.78;100659.75;5060681;28;20036;-60
2021/12/26 03:35:41;;;;;;;7.13;2.50;;;;;;;2.74;54.97;100663.25;5089490;28;20036;-60
2021/12/26 03:38:09;;;;;;;4.90;2.45;;;;;;;2.76;55.50;100653.34;5076973;28;20098;-60
2021/12/26 03:40:52;;;;;;;5.35;2.72;;;;;;;2.75;54.53;100646.41;5065004;28;20040;-60
2021/12/26 03:43:19;;;;;;;4.63;2.17;;;;;;;2.59;55.39;100655.00;5095133;28;20067;-59
2021/12/26 03:45:49;;;;;;;4.38;2.15;;;;;;;2.49;57.25;100664.75;5077341;28;20122;-59
2021/12/26 03:48:17;;;;;;;5.78;2.75;;;;;;;2.47;57.60;100656.16;5077221;28;20039;-60
2021/12/26 03:50:43;;;;;;;6.13;2.10;;;;;;;2.51;57.60;100657.53;5095709;28;20036;-60
2021/12/26 03:53:10;;;;;;;4.15;2.45;;;;;;;2.46;56.74;100654.50;5076973;28;20040;-59
2021/12/26 03:55:38;;;;;;;4.93;2.40;;;;;;;2.48;56.25;100644.63;5078644;28;20031;-60
2021/12/26 03:58:04;;;;;;;4.68;2.03;;;;;;;2.53;57.63;100639.72;5096511;28;20028;-59
2021/12/26 04:00:30;;;;;;;5.25;2.05;;;;;;;2.32;58.28;100640.81;5076616;28;20044;-61
2021/12/26 04:02:59;;;;;;;4.68;2.17;;;;;;;2.46;57.14;100636.88;5060423;28;20124;-61
2021/12/26 04:05:25;;;;;;;6.60;2.40;;;;;;;2.41;58.45;100636.44;5076660;28;20063;-60
2021/12/26 04:07:51;;;;;;;4.35;2.20;;;;;;;2.31;59.93;100633.88;5077207;28;20547;-59
2021/12/26 04:10:18;;;;;;;;;;;;;;;2.33;58.79;100639.84;5077254;28;20032;-59
2021/12/26 04:12:47;;;;;;;8.55;2.30;;;;;;;2.36;57.87;100630.78;5076505;28;19965;-59
2021/12/26 04:15:16;;;;;;;5.90;2.50;;;;;;;2.40;56.97;100633.00;5076319;28;20032;-59
2021/12/26 04:17:42;;;;;;;6.32;2.65;;;;;;;2.18;57.65;100628.09;5094687;28;20355;-59
2021/12/26 04:20:09;;;;;;;5.70;2.28;;;;;;;2.48;56.02;100636.69;5076423;28;20058;-59
2021/12/26 04:22:35;;;;;;;3.65;2.00;;;;;;;2.38;57.06;100636.75;5076638;28;20032;-59
2021/12/26 04:25:02;;;;;;;4.35;2.80;;;;;;;2.28;57.81;100639.44;5075518;28;20056;-59
2021/12/26 04:27:28;;;;;;;4.50;2.35;;;;;;;2.24;56.91;100636.28;5076736;28;20408;-59
2021/12/26 04:29:54;;;;;;;5.97;2.60;;;;;;;2.22;59.80;100629.47;5076443;28;20050;-60
2021/12/26 04:32:22;;;;;;;4.70;2.22;;;;;;;2.18;59.33;100621.00;5076302;28;20047;-60
2021/12/26 04:34:48;;;;;;;3.03;2.07;;;;;;;2.29;56.90;100633.16;5094674;28;20460;-60
2021/12/26 04:37:15;;;;;;;4.28;2.00;;;;;;;2.28;56.19;100621.81;5076142;28;20078;-59
2021/12/26 04:39:40;;;;;;;6.30;2.00;;;;;;;2.38;57.55;100628.81;5076401;28;20036;-58
2021/12/26 04:42:07;;;;;;;5.50;2.30;;;;;;;2.36;57.12;100629.00;5076123;28;20371;-60
2021/12/26 04:44:52;;;;;;;4.25;1.98;;;;;;;2.25;56.62;100621.25;5079031;28;20078;-59
2021/12/26 04:47:32;;;;;;;5.55;2.08;;;;;;;2.50;56.49;100634.75;5094639;28;20067;-58
2021/12/26 04:49:59;;;;;;;;;;;;;;;2.34;56.32;100636.22;5076128;28;20039;-54
2021/12/26 04:52:39;;;;;;;5.97;2.47;;;;;;;2.56;55.95;100644.72;5076326;28;20343;-60
2021/12/26 04:55:05;;;;;;;4.55;2.22;;;;;;;2.51;56.78;100636.41;5075733;28;20749;-58
2021/12/26 04:57:32;;;;;;;4.65;2.03;;;;;;;2.33;57.28;100639.00;5076101;28;20040;-59
2021/12/26 04:59:58;;;;;;;5.60;2.10;;;;;;;2.40;54.97;100635.63;5076026;28;20060;-59
2021/12/26 05:02:24;;;;;;;5.90;1.98;;;;;;;2.47;54.43;100624.47;5075687;28;20066;-59
2021/12/26 05:04:51;;;;;;;4.32;2.42;;;;;;;2.36;55.76;100615.78;5094612;28;20070;-58
2021/12/26 05:07:17;;;;;;;4.28;1.90;;;;;;;2.44;56.51;100604.50;5093747;28;20048;-59
2021/12/26 05:09:45;;;;;;;3.50;2.10;;;;;;;2.56;54.82;100600.66;5094368;28;20509;-59
2021/12/26 05:12:10;;;;;;;5.05;2.17;;;;;;;2.38;57.37;100610.34;5093872;28;20043;-59
2021/12/26 05:14:36;;;;;;;4.82;2.00;;;;;;;2.68;55.45;100601.28;5100160;28;20032;-61
2021/12/26 05:17:02;;;;;;;4.45;2.17;;;;;;;2.65;55.57;100596.31;5097556;28;20048;-57
2021/12/26 05:19:27;;;;;;;5.32;2.10;;;;;;;2.68;54.92;100593.38;5093967;28;20368;-59
2021/12/26 05:21:53;;;;;;;4.43;1.98;;;;;;;2.81;55.39;100592.19;5075652;28;20048;-60
2021/12/26 05:24:19;;;;;;;3.45;1.85;;;;;;;2.68;54.47;100605.75;5093609;28;20464;-59
2021/12/26 05:26:44;;;;;;;5.38;2.20;;;;;;;2.61;53.78;100599.38;5075648;28;20044;-59
2021/12/26 05:29:10;;;;;;;3.72;2.03;;;;;;;2.62;53.24;100595.75;5075499;28;20140;-60
2021/12/26 05:31:36;;;;;;;4.55;1.90;;;;;;;2.61;52.88;100594.94;5075828;28;20043;-60
2021/12/26 05:34:02;;;;;;;5.00;2.42;;;;;;;2.84;53.32;100594.50;5058795;28;20383;-59
2021/12/26 05:36:27;;;;;;;5.50;2.25;;;;;;;2.71;53.59;100598.34;5095528;28;20064;-60
2021/12/26 05:38:56;;;;;;;4.10;1.90;;;;;;;2.87;52.71;100588.91;5077111;28;20032;-60
2021/12/26 05:41:21;;;;;;;3.50;1.90;;;;;;;2.98;53.41;100596.59;5075012;28;20047;-60
2021/12/26 05:44:17;;;;;;;4.25;2.20;;;;;;;2.91;53.36;100587.63;5074976;28;20047;-60
2021/12/26 05:46:45;;;;;;;3.25;1.55;;;;;;;2.78;54.25;100576.63;5075041;28;20032;-59
2021/12/26 05:49:11;;;;;;;3.88;2.13;;;;;;;2.98;54.49;100575.47;5074865;28;20506;-59
2021/12/26 05:51:47;;;;;;;4.07;2.17;;;;;;;2.83;56.53;100584.94;5075461;28;20464;-59
2021/12/26 05:54:39;;;;;;;4.85;1.80;;;;;;;2.70;56.14;100572.91;5075460;28;20393;-60
2021/12/26 05:57:06;;;;;;;4.63;1.83;;;;;;;2.68;55.62;100577.53;5093092;28;20136;-59
2021/12/26 05:59:33;;;;;;;5.30;2.70;;;;;;;2.63;56.24;100576.28;5074970;28;20040;-59
2021/12/26 06:01:59;;;;;;;4.75;2.22;;;;;;;2.61;55.23;100573.81;5058495;28;20032;-59
2021/12/26 06:04:26;;;;;;;4.57;1.88;;;;;;;2.39;54.77;100567.13;5058236;28;20052;-58
2021/12/26 06:06:52;;;;;;;3.53;1.90;;;;;;;2.47;54.47;100569.88;5066759;28;20397;-60
2021/12/26 06:09:18;;;;;;;3.47;1.80;;;;;;;2.42;54.52;100574.75;5054682;28;20467;-61
2021/12/26 06:11:44;;;;;;;3.80;1.63;;;;;;;2.50;55.51;100576.66;5038231;28;20139;-60
2021/12/26 06:14:12;;;;;;;4.50;1.77;;;;;;;2.28;54.87;100576.94;5054842;28;20066;-60
2021/12/26 06:16:37;;;;;;;3.10;1.77;;;;;;;2.39;54.72;100577.69;5055042;28;20123;-60
2021/12/26 06:19:09;;;;;;;3.63;1.55;;;;;;;2.37;54.89;100569.94;5054746;28;20037;-60
2021/12/26 06:21:34;;;;;;;6.43;2.20;;;;;;;2.33;55.33;100579.16;5054826;28;20036;-60
2021/12/26 06:24:09;;;;;;;4.95;2.20;;;;;;;2.34;55.42;100574.69;5073154;28;20123;-58
2021/12/26 06:26:53;;;;;;;5.60;3.08;;;;;;;2.32;56.92;100588.03;5058255;28;20075;-60
2021/12/26 06:29:39;;;;;;;3.30;1.73;;;;;;;2.14;59.64;100580.91;5017779;28;20535;-60
2021/12/26 06:32:42;;;;;;;5.35;2.30;;;;;;;2.18;58.29;100583.25;5074621;28;20551;-60
2021/12/26 06:35:27;;;;;;;5.97;2.50;;;;;;;2.33;56.76;100571.22;5078957;28;20502;-60
2021/12/26 06:38:13;;;;;;;5.68;2.33;;;;;;;2.40;56.86;100569.66;5032204;28;20134;-60
2021/12/26 06:40:57;;;;;;;6.30;2.47;;;;;;;2.44;58.34;100572.84;5072763;28;20063;-59
2021/12/26 06:43:42;;;;;;;5.85;2.30;;;;;;;2.30;59.12;100571.50;5072338;28;20040;-59
2021/12/26 06:46:32;;;;;;;4.00;1.92;;;;;;;2.36;59.41;100575.34;5072295;28;20102;-59
2021/12/26 06:49:16;;;;;;;5.03;2.63;;;;;;;2.48;58.96;100573.34;5058183;28;20379;-59
2021/12/26 06:51:41;;;;;;;8.40;2.20;;;;;;;2.35;59.99;100568.41;5076041;28;20484;-60
2021/12/26 06:54:07;;;;;;;4.67;2.30;;;;;;;2.35;59.91;100568.41;5041892;28;20033;-60
2021/12/26 06:56:33;;;;;;;6.05;1.80;;;;;;;2.48;60.33;100568.06;5076145;28;20048;-59
2021/12/26 06:59:01;;;;;;;5.53;2.33;;;;;;;2.31;60.41;100569.69;5058125;28;20041;-60
2021/12/26 07:01:27;;;;;;;7.18;1.95;;;;;;;2.38;60.14;100574.25;5074546;28;20040;-61
2021/12/26 07:03:54;;;;;;;3.53;2.28;;;;;;;2.37;59.11;100577.88;5057836;28;20045;-60
2021/12/26 07:06:21;;;;;;;5.60;2.08;;;;;;;2.44;59.24;100573.66;5057651;28;20059;-60
2021/12/26 07:08:48;;;;;;;;;;;;;;;2.39;59.88;100575.91;5058637;28;20040;-59
2021/12/26 07:11:16;;;;;;;5.83;2.57;;;;;;;2.45;59.96;100569.22;5057779;28;19916;-59
2021/12/26 07:13:41;;;;;;;3.78;2.08;;;;;;;2.31;60.55;100573.19;5074353;28;20040;-60
2021/12/26 07:16:07;;;;;;;3.42;2.00;;;;;;;2.25;62.05;100568.47;5058246;28;20040;-60
2021/12/26 07:18:33;;;;;;;4.18;2.45;;;;;;;2.24;60.94;100567.66;5057806;28;20639;-61
2021/12/26 07:20:59;;;;;;;5.35;2.30;;;;;;;2.43;61.14;100565.88;5057909;28;20040;-60
2021/12/26 07:23:24;;;;;;;6.73;2.80;;;;;;;2.28;63.34;100563.75;5075586;28;20042;-60
2021/12/26 07:25:53;;;;;;;7.13;2.72;;;;;;;2.42;62.59;100558.94;5057566;28;20156;-59
2021/12/26 07:28:20;;;;;;;5.95;2.60;;;;;;;2.58;62.95;100568.84;5057275;28;20040;-60
2021/12/26 07:31:07;;;;;;;6.03;2.72;;;;;;;2.51;62.85;100565.97;5074827;28;20068;-59
2021/12/26 07:33:33;;;;;;;4.32;2.00;;;;;;;2.33;65.44;100565.94;5057575;28;20039;-61
2021/12/26 07:36:03;;;;;;;7.20;2.50;;;;;;;2.48;64.76;100570.69;5041451;28;20463;-60
2021/12/26 07:38:39;;;;;;;7.80;2.67;;;;;;;2.50;65.18;100569.59;5057382;28;20082;-59
2021/12/26 07:41:05;;;;;;;5.70;2.30;;;;;;;2.54;64.69;100570.13;5073816;28;20537;-60
2021/12/26 07:43:35;;;;;;;4.82;2.47;;;;;;;2.41;65.51;100568.66;5077051;28;20039;-60
2021/12/26 07:46:19;;;;;;;7.03;3.00;;;;;;;2.52;64.44;100561.50;5095660;28;20506;-60
2021/12/26 07:48:46;;;;;;;7.97;2.70;;;;;;;2.44;63.75;100562.28;5062090;28;20063;-60
2021/12/26 07:51:32;;;;;;;6.03;3.42;;;;;;;2.34;63.13;100567.59;5095924;28;20418;-59
2021/12/26 07:54:16;;;;;;;6.97;3.15;;;;;;;2.53;62.54;100566.66;5098589;28;20101;-61
2021/12/26 07:57:15;;;;;;;4.90;2.53;;;;;;;2.48;64.03;100566.28;5048914;28;20044;-61
2021/12/26 07:59:59;;;;;;;5.35;2.47;;;;;;;2.57;63.02;100564.53;5093183;28;20486;-59
2021/12/26 08:02:43;;;;;;;5.63;2.47;;;;;;;2.58;61.40;100561.75;5094081;28;20062;-59
2021/12/26 08:05:35;;;;;;;3.78;2.13;;;;;;;2.48;63.42;100557.50;5042708;28;20083;-60
2021/12/26 08:08:26;;;;;;;4.70;2.45;;;;;;;2.47;61.56;100563.75;5083745;28;20463;-60
2021/12/26 08:10:52;;;;;;;4.73;2.10;;;;;;;2.49;62.28;100561.81;5060138;28;20036;-60
2021/12/26 08:13:17;;;;;;;6.67;3.40;;;;;;;2.46;61.53;100556.81;5059558;28;20039;-61
2021/12/26 08:15:43;;;;;;;5.28;2.92;;;;;;;2.43;63.72;100564.06;5059834;28;20061;-61
2021/12/26 08:18:09;;;;;;;5.23;2.63;;;;;;;2.56;63.04;100573.44;5094773;28;20475;-61
2021/12/26 08:20:34;;;;;;;6.68;3.05;;;;;;;2.55;64.79;100571.78;5076674;28;20028;-62
2021/12/26 08:23:01;;;;;;;5.70;2.77;;;;;;;2.62;63.57;100574.63;5094579;28;20145;-60
2021/12/26 08:25:28;;;;;;;5.82;2.55;;;;;;;2.70;66.44;100578.19;5076510;28;20260;-59
2021/12/26 08:27:53;;;;;;;5.20;2.63;;;;;;;2.76;63.74;100579.41;5094438;28;20063;-60
2021/12/26 08:30:20;;;;;;;7.37;2.33;;;;;;;2.82;63.77;100573.53;5076161;28;20067;-59
2021/12/26 08:32:50;;;;;;;3.80;2.20;;;;;;;2.89;62.53;100571.09;5094032;28;20026;-59
2021/12/26 08:35:15;;;;;;;6.35;2.50;;;;;;;2.78;65.41;100579.28;5059864;28;20055;-60
2021/12/26 08:37:41;;;;;;;5.10;2.80;;;;;;;2.95;61.87;100569.69;5093833;28;20223;-59
2021/12/26 08:40:08;;;;;;;8.23;2.45;;;;;;;2.90;63.20;100567.47;5075726;28;20272;-61
2021/12/26 08:42:34;;;;;;;6.68;2.45;;;;;;;3.01;62.14;100564.63;5093668;28;20111;-60
2021/12/26 08:45:01;;;;;;;5.45;2.58;;;;;;;3.06;62.50;100579.19;5075542;28;20496;-60
2021/12/26 08:47:26;;;;;;;4.35;2.45;;;;;;;3.14;64.19;100568.66;5093409;28;20098;-59
2021/12/26 08:49:52;;;;;;;5.72;3.03;;;;;;;3.10;63.08;100576.06;5094262;28;20036;-61
2021/12/26 08:52:18;;;;;;;3.77;1.73;;;;;;;3.01;62.55;100574.34;5075638;28;20547;-58
2021/12/26 08:54:44;;;;;;;6.55;2.53;;;;;;;3.18;62.23;100570.03;5093816;28;20280;-58
2021/12/26 08:57:10;;;;;;;4.32;2.10;;;;;;;3.17;62.13;100572.84;5075944;28;20065;-60
2021/12/26 08:59:37;;;;;;;17.38;3.58;;;;;;;3.50;60.04;100584.47;5075890;28;20137;-60
2021/12/26 09:02:04;;;;;;;4.20;2.13;;;;;;;3.21;61.33;100580.28;5076084;28;20049;-60
2021/12/26 09:04:30;;;;;;;8.40;2.38;;;;;;;3.29;61.62;100577.72;5094013;28;20509;-59
2021/12/26 09:06:56;;;;;;;6.63;2.70;;;;;;;3.37;61.49;100587.53;5093982;28;20032;-59
2021/12/26 09:09:22;;;;;;;3.90;1.75;;;;;;;3.52;59.45;100579.00;5092698;28;20105;-59
2021/12/26 09:11:48;;;;;;;3.40;2.10;;;;;;;3.59;59.19;100582.72;5094830;28;20472;-60
2021/12/26 09:14:13;;;;;;;3.87;1.77;;;;;;;3.64;59.53;100569.84;5100171;28;20539;-60
2021/12/26 09:16:39;;;;;;;4.40;1.77;;;;;;;3.68;58.85;100575.63;5094433;28;20330;-60
2021/12/26 09:19:05;;;;;;;4.60;2.33;;;;;;;3.87;58.95;100583.34;5042557;28;20110;-59
2021/12/26 09:21:32;;;;;;;5.75;2.55;;;;;;;3.82;58.27;100579.53;5093659;28;20380;-59
2021/12/26 09:23:57;;;;;;;10.95;3.05;;;;;;;3.92;59.06;100582.03;5093329;28;20028;-58
2021/12/26 09:26:23;;;;;;;4.30;2.27;;;;;;;3.90;58.01;100574.28;5092807;28;20020;-59
2021/12/26 09:28:50;;;;;;;5.40;2.85;;;;;;;4.05;57.10;100573.69;5092918;28;20279;-59
2021/12/26 09:31:16;;;;;;;3.90;2.60;;;;;;;4.16;57.44;100565.44;5093142;28;20513;-60
2021/12/26 09:33:42;;;;;;;5.38;2.53;;;;;;;4.03;57.45;100576.47;5093143;28;20036;-60
2021/12/26 09:36:07;;;;;;;5.63;2.65;;;;;;;4.18;59.79;100581.19;5093799;28;20448;-59
2021/12/26 09:38:33;;;;;;;7.15;3.00;;;;;;;5.58;52.99;100578.66;5092772;28;20024;-59
2021/12/26 09:40:59;;;;;;;4.60;2.42;;;;;;;6.62;49.09;100584.91;5092401;28;20032;-59
2021/12/26 09:43:25;;;;;;;5.93;2.55;;;;;;;7.69;46.13;100585.88;5074744;28;20028;-59
2021/12/26 09:45:51;;;;;;;6.13;3.05;;;;;;;8.01;44.06;100583.03;5054743;28;20031;-60
2021/12/26 09:48:17;;;;;;;5.53;2.65;;;;;;;8.49;42.64;100590.59;5055140;28;20032;-60
2021/12/26 09:50:43;;;;;;;7.28;2.72;;;;;;;8.33;42.12;100576.47;5072171;28;20384;-60
2021/12/26 09:53:09;;;;;;;5.70;2.38;;;;;;;8.20;42.61;100586.13;5089807;28;20054;-60
2021/12/26 09:55:34;;;;;;;4.27;2.57;;;;;;;8.73;41.78;100572.63;5074481;28;20040;-60
2021/12/26 09:58:00;;;;;;;5.87;2.87;;;;;;;9.26;40.37;100572.28;5093087;28;20724;-60
2021/12/26 10:00:32;;;;;;;5.43;3.00;;;;;;;9.37;39.90;100570.09;5075916;28;20288;-59
2021/12/26 10:03:36;;;;;;;5.28;2.88;;;;;;;10.14;38.18;100578.94;5093691;28;20047;-60
2021/12/26 10:06:12;;;;;;;5.10;2.95;;;;;;;10.34;38.22;100583.56;5077401;28;20062;-59
2021/12/26 10:08:58;;;;;;;4.68;2.58;;;;;;;10.73;37.15;100576.72;5074207;28;20028;-59
2021/12/26 10:11:33;;;;;;;7.82;3.13;;;;;;;10.75;37.24;100569.31;5090352;28;20493;-60
2021/12/26 10:14:01;;;;;;;9.40;2.90;;;;;;;10.51;37.13;100575.22;5074496;28;20382;-59
2021/12/26 10:16:32;;;;;;;6.97;2.75;;;;;;;9.16;39.10;100563.75;5058065;28;20024;-60
2021/12/26 10:18:58;;;;;;;4.97;2.85;;;;;;;8.29;41.90;100561.88;5092846;28;20038;-60
2021/12/26 10:21:29;;;;;;;;;;;;;;;7.85;43.20;100552.94;5075312;28;20040;-58
2021/12/26 10:23:59;;;;;;;9.65;3.17;;;;;;;7.41;45.08;100540.44;5096771;28;19915;-59
2021/12/26 10:26:31;;;;;;;6.50;3.13;;;;;;;7.19;46.19;100537.66;5078210;28;20463;-59
2021/12/26 10:29:05;;;;;;;10.32;4.35;;;;;;;7.05;46.53;100530.44;5095481;28;20114;-61
2021/12/26 10:31:30;;;;;;;8.38;3.80;;;;;;;7.08;47.11;100532.75;5099334;28;20131;-60
2021/12/26 10:33:56;;;;;;;5.73;3.00;;;;;;;7.08;47.95;100524.78;5098735;28;20089;-60
2021/12/26 10:36:21;;;;;;;6.95;3.50;;;;;;;6.97;49.21;100526.03;5077701;28;20755;-59
2021/12/26 10:39:08;;;;;;;9.57;4.03;;;;;;;7.21;48.19;100530.31;5077864;28;20066;-59
2021/12/26 10:41:40;;;;;;;7.30;3.17;;;;;;;7.18;48.51;100526.16;5077165;28;20379;-60
2021/12/26 10:44:05;;;;;;;8.52;3.45;;;;;;;7.37;48.71;100517.84;5097270;28;20081;-60
2021/12/26 10:46:31;;;;;;;7.63;3.17;;;;;;;7.55;48.78;100510.31;5096552;28;20035;-60
2021/12/26 10:49:25;;;;;;;6.32;3.03;;;;;;;7.89;46.61;100508.09;5078312;28;20612;-59
2021/12/26 10:51:51;;;;;;;6.15;3.25;;;;;;;7.89;46.79;100505.44;5096357;28;20039;-59
2021/12/26 10:54:19;;;;;;;7.60;4.00;;;;;;;8.42;46.24;100501.72;5078231;28;20383;-60
2021/12/26 10:57:05;;;;;;;4.90;3.00;;;;;;;8.96;44.85;100505.75;5095835;28;20352;-60
2021/12/26 10:59:31;;;;;;;6.75;3.40;;;;;;;9.65;43.39;100505.16;5061688;28;20035;-61
2021/12/26 11:01:57;;;;;;;7.22;3.95;;;;;;;9.31;44.09;100497.78;5096567;28;20036;-59
2021/12/26 11:04:26;;;;;;;6.45;3.47;;;;;;;9.33;44.81;100487.75;5096797;28;20379;-60
2021/12/26 11:07:10;;;;;;;7.45;3.22;;;;;;;9.67;43.88;100501.28;5077836;28;20463;-61
2021/12/26 11:09:36;;;;;;;8.32;3.40;;;;;;;9.61;44.49;100489.53;5096762;28;20044;-61
2021/12/26 11:12:06;;;;;;;6.35;3.85;;;;;;;9.65;44.12;100494.47;5095514;28;20071;-60
2021/12/26 11:14:32;;;;;;;8.43;4.10;;;;;;;9.84;44.07;100496.44;5078033;28;20035;-59
2021/12/26 11:16:58;;;;;;;9.02;3.92;;;;;;;9.61;44.58;100496.75;5095712;28;20036;-60
2021/12/26 11:19:41;;;;;;;9.45;4.10;;;;;;;9.29;45.02;100493.66;5095760;28;20154;-60
2021/12/26 11:22:08;;;;;;;10.30;3.60;;;;;;;9.04;45.53;100489.59;5095765;28;20040;-60
2021/12/26 11:24:34;;;;;;;7.15;3.95;;;;;;;8.98;45.59;100485.03;5095741;28;20032;-61
2021/12/26 11:26:59;;;;;;;6.80;3.88;;;;;;;8.77;45.90;100475.22;5077391;28;20420;-60
2021/12/26 11:29:25;;;;;;;9.37;3.53;;;;;;;8.60;46.59;100474.69;5095717;28;20036;-59
2021/12/26 11:31:53;;;;;;;5.85;3.08;;;;;;;8.32;47.48;100478.88;5095778;28;20304;-59
2021/12/26 11:34:19;;;;;;;7.30;3.90;;;;;;;8.31;47.70;100469.25;5077432;28;20119;-59
2021/12/26 11:36:45;;;;;;;8.07;4.38;;;;;;;8.39;48.13;100475.47;5095431;28;20087;-60
2021/12/26 11:39:26;;;;;;;8.63;3.70;;;;;;;8.53;47.84;100479.09;5077537;28;20408;-60
2021/12/26 11:42:29;;;;;;;9.18;3.58;;;;;;;8.68;47.64;100481.72;5095328;28;20490;-60
2021/12/26 11:45:27;;;;;;;7.93;4.22;;;;;;;8.55;48.42;100482.44;5095821;28;20151;-60
2021/12/26 11:48:26;;;;;;;8.93;4.73;;;;;;;8.41;48.44;100482.25;5088880;28;20078;-63
2021/12/26 11:51:19;;;;;;;7.30;4.20;;;;;;;8.10;49.23;100464.72;5103490;28;20051;-61
2021/12/26 11:54:29;;;;;;;9.57;4.18;;;;;;;8.28;49.62;100471.47;5081553;28;20460;-60
2021/12/26 11:57:21;;;;;;;10.98;4.35;;;;;;;8.35;49.53;100471.53;5077371;28;20065;-60